sensor_id;sensor_type;location;lat;lon;timestamp;P1;durP1;ratioP1;P2;durP2;ratioP2
41233;SDS011;26968;42.686;23.352;2023-03-04T00:01:01;28.77;;;16.30;;
41233;SDS011;26968;42.686;23.352;2023-03-04T00:03:27;30.60;;;15.50;;
41233;SDS011;26968;42.686;23.352;2023-03-04T00:05:52;31.38;;;16.27;;
41233;SDS011;26968;42.686;23.352;2023-03-04T00:08:18;27.65;;;15.88;;
41233;SDS011;26968;42.686;23.352;2023-03-04T00:10:43;27.90;;;16.02;;
41233;SDS011;26968;42.686;23.352;2023-03-04T00:13:08;31.38;;;16.80;;
41233;SDS011;26968;42.686;23.352;2023-03-04T00:15:34;26.73;;;15.40;;
41233;SDS011;26968;42.686;23.352;2023-03-04T00:17:59;30.70;;;16.58;;
41233;SDS011;26968;42.686;23.352;2023-03-04T00:20:25;29.45;;;15.60;;
41233;SDS011;26968;42.686;23.352;2023-03-04T00:22:50;28.45;;;16.55;;
41233;SDS011;26968;42.686;23.352;2023-03-04T00:25:16;23.35;;;15.07;;
41233;SDS011;26968;42.686;23.352;2023-03-04T00:27:41;27.50;;;15.52;;
41233;SDS011;26968;42.686;23.352;2023-03-04T00:30:09;30.10;;;17.48;;
41233;SDS011;26968;42.686;23.352;2023-03-04T00:32:34;29.13;;;16.25;;
41233;SDS011;26968;42.686;23.352;2023-03-04T00:35:00;30.48;;;17.77;;
41233;SDS011;26968;42.686;23.352;2023-03-04T00:37:25;29.88;;;17.13;;
41233;SDS011;26968;42.686;23.352;2023-03-04T00:39:51;35.03;;;19.35;;
41233;SDS011;26968;42.686;23.352;2023-03-04T00:42:16;32.03;;;18.45;;
41233;SDS011;26968;42.686;23.352;2023-03-04T00:44:42;33.50;;;19.75;;
41233;SDS011;26968;42.686;23.352;2023-03-04T00:47:07;36.15;;;19.20;;
41233;SDS011;26968;42.686;23.352;2023-03-04T00:49:33;30.23;;;17.83;;
41233;SDS011;26968;42.686;23.352;2023-03-04T00:51:58;34.92;;;19.48;;
41233;SDS011;26968;42.686;23.352;2023-03-04T00:54:23;36.83;;;20.23;;
41233;SDS011;26968;42.686;23.352;2023-03-04T00:56:49;38.05;;;19.35;;
41233;SDS011;26968;42.686;23.352;2023-03-04T00:59:14;35.22;;;18.92;;
41233;SDS011;26968;42.686;23.352;2023-03-04T01:01:40;35.15;;;19.48;;
41233;SDS011;26968;42.686;23.352;2023-03-04T01:04:05;31.70;;;18.23;;
41233;SDS011;26968;42.686;23.352;2023-03-04T01:06:30;30.85;;;18.38;;
41233;SDS011;26968;42.686;23.352;2023-03-04T01:08:56;36.78;;;18.58;;
41233;SDS011;26968;42.686;23.352;2023-03-04T01:11:21;40.65;;;19.10;;
41233;SDS011;26968;42.686;23.352;2023-03-04T01:13:47;31.75;;;17.95;;
41233;SDS011;26968;42.686;23.352;2023-03-04T01:16:12;29.63;;;16.73;;
41233;SDS011;26968;42.686;23.352;2023-03-04T01:18:38;29.05;;;17.40;;
41233;SDS011;26968;42.686;23.352;2023-03-04T01:21:04;38.10;;;18.92;;
41233;SDS011;26968;42.686;23.352;2023-03-04T01:23:30;33.28;;;19.10;;
41233;SDS011;26968;42.686;23.352;2023-03-04T01:25:55;33.08;;;17.55;;
41233;SDS011;26968;42.686;23.352;2023-03-04T01:28:20;33.30;;;17.73;;
41233;SDS011;26968;42.686;23.352;2023-03-04T01:30:46;27.70;;;16.73;;
41233;SDS011;26968;42.686;23.352;2023-03-04T01:33:11;32.53;;;17.98;;
41233;SDS011;26968;42.686;23.352;2023-03-04T01:35:37;27.08;;;16.50;;
41233;SDS011;26968;42.686;23.352;2023-03-04T01:38:02;27.58;;;16.10;;
41233;SDS011;26968;42.686;23.352;2023-03-04T01:40:29;33.20;;;17.30;;
41233;SDS011;26968;42.686;23.352;2023-03-04T01:42:55;28.98;;;16.50;;
41233;SDS011;26968;42.686;23.352;2023-03-04T01:45:20;27.63;;;17.00;;
41233;SDS011;26968;42.686;23.352;2023-03-04T01:47:46;33.05;;;17.48;;
41233;SDS011;26968;42.686;23.352;2023-03-04T01:50:18;29.50;;;17.38;;
41233;SDS011;26968;42.686;23.352;2023-03-04T01:52:58;33.75;;;16.67;;
41233;SDS011;26968;42.686;23.352;2023-03-04T01:55:24;36.33;;;18.63;;
41233;SDS011;26968;42.686;23.352;2023-03-04T01:57:50;28.08;;;17.48;;
41233;SDS011;26968;42.686;23.352;2023-03-04T02:02:54;30.15;;;18.13;;
41233;SDS011;26968;42.686;23.352;2023-03-04T02:05:22;33.17;;;17.23;;
41233;SDS011;26968;42.686;23.352;2023-03-04T02:07:49;31.80;;;16.65;;
41233;SDS011;26968;42.686;23.352;2023-03-04T02:10:16;30.98;;;16.98;;
41233;SDS011;26968;42.686;23.352;2023-03-04T02:12:42;28.65;;;17.00;;
41233;SDS011;26968;42.686;23.352;2023-03-04T02:15:09;32.38;;;17.63;;
41233;SDS011;26968;42.686;23.352;2023-03-04T02:17:34;33.05;;;18.80;;
41233;SDS011;26968;42.686;23.352;2023-03-04T02:22:25;30.23;;;16.40;;
41233;SDS011;26968;42.686;23.352;2023-03-04T02:24:55;31.05;;;16.58;;
41233;SDS011;26968;42.686;23.352;2023-03-04T02:27:27;31.63;;;17.77;;
41233;SDS011;26968;42.686;23.352;2023-03-04T02:29:52;31.05;;;17.65;;
41233;SDS011;26968;42.686;23.352;2023-03-04T02:32:18;32.30;;;16.95;;
41233;SDS011;26968;42.686;23.352;2023-03-04T02:34:47;28.13;;;16.35;;
41233;SDS011;26968;42.686;23.352;2023-03-04T02:37:15;29.80;;;16.83;;
41233;SDS011;26968;42.686;23.352;2023-03-04T02:39:45;30.80;;;17.05;;
41233;SDS011;26968;42.686;23.352;2023-03-04T02:42:12;28.95;;;16.40;;
41233;SDS011;26968;42.686;23.352;2023-03-04T02:44:39;38.50;;;16.92;;
41233;SDS011;26968;42.686;23.352;2023-03-04T02:47:08;35.20;;;17.23;;
41233;SDS011;26968;42.686;23.352;2023-03-04T02:49:36;26.83;;;15.82;;
41233;SDS011;26968;42.686;23.352;2023-03-04T02:52:07;30.80;;;16.85;;
41233;SDS011;26968;42.686;23.352;2023-03-04T02:54:37;28.20;;;14.77;;
41233;SDS011;26968;42.686;23.352;2023-03-04T02:57:05;28.80;;;15.90;;
41233;SDS011;26968;42.686;23.352;2023-03-04T02:59:32;26.02;;;15.32;;
41233;SDS011;26968;42.686;23.352;2023-03-04T03:01:57;27.83;;;16.42;;
41233;SDS011;26968;42.686;23.352;2023-03-04T03:04:23;33.00;;;15.35;;
41233;SDS011;26968;42.686;23.352;2023-03-04T03:06:49;26.95;;;15.63;;
41233;SDS011;26968;42.686;23.352;2023-03-04T03:09:15;28.08;;;16.02;;
41233;SDS011;26968;42.686;23.352;2023-03-04T03:11:41;29.83;;;16.85;;
41233;SDS011;26968;42.686;23.352;2023-03-04T03:14:06;27.83;;;17.02;;
41233;SDS011;26968;42.686;23.352;2023-03-04T03:16:32;28.30;;;15.48;;
41233;SDS011;26968;42.686;23.352;2023-03-04T03:18:57;27.63;;;16.17;;
41233;SDS011;26968;42.686;23.352;2023-03-04T03:21:23;33.65;;;16.42;;
41233;SDS011;26968;42.686;23.352;2023-03-04T03:23:48;28.23;;;15.73;;
41233;SDS011;26968;42.686;23.352;2023-03-04T03:26:14;28.17;;;15.40;;
41233;SDS011;26968;42.686;23.352;2023-03-04T03:28:40;28.63;;;16.25;;
41233;SDS011;26968;42.686;23.352;2023-03-04T03:31:05;26.98;;;15.52;;
41233;SDS011;26968;42.686;23.352;2023-03-04T03:33:31;30.50;;;16.13;;
41233;SDS011;26968;42.686;23.352;2023-03-04T03:35:57;29.20;;;15.85;;
41233;SDS011;26968;42.686;23.352;2023-03-04T03:38:22;27.50;;;15.60;;
41233;SDS011;26968;42.686;23.352;2023-03-04T03:40:48;30.83;;;15.30;;
41233;SDS011;26968;42.686;23.352;2023-03-04T03:43:13;29.45;;;17.23;;
41233;SDS011;26968;42.686;23.352;2023-03-04T03:45:39;31.83;;;17.98;;
41233;SDS011;26968;42.686;23.352;2023-03-04T03:48:04;35.55;;;18.63;;
41233;SDS011;26968;42.686;23.352;2023-03-04T03:50:30;33.78;;;18.27;;
41233;SDS011;26968;42.686;23.352;2023-03-04T03:52:55;33.35;;;17.13;;
41233;SDS011;26968;42.686;23.352;2023-03-04T03:55:21;32.10;;;17.77;;
41233;SDS011;26968;42.686;23.352;2023-03-04T03:57:47;33.83;;;16.83;;
41233;SDS011;26968;42.686;23.352;2023-03-04T04:00:13;29.80;;;16.83;;
41233;SDS011;26968;42.686;23.352;2023-03-04T04:02:40;30.35;;;17.20;;
41233;SDS011;26968;42.686;23.352;2023-03-04T04:05:06;31.95;;;17.30;;
41233;SDS011;26968;42.686;23.352;2023-03-04T04:07:32;31.17;;;16.80;;
41233;SDS011;26968;42.686;23.352;2023-03-04T04:09:58;29.75;;;17.42;;
41233;SDS011;26968;42.686;23.352;2023-03-04T04:12:23;35.25;;;17.40;;
41233;SDS011;26968;42.686;23.352;2023-03-04T04:14:49;26.90;;;15.75;;
41233;SDS011;26968;42.686;23.352;2023-03-04T04:17:14;27.58;;;16.58;;
41233;SDS011;26968;42.686;23.352;2023-03-04T04:19:40;29.73;;;16.77;;
41233;SDS011;26968;42.686;23.352;2023-03-04T04:22:07;31.17;;;16.75;;
41233;SDS011;26968;42.686;23.352;2023-03-04T04:24:37;35.03;;;17.52;;
41233;SDS011;26968;42.686;23.352;2023-03-04T04:27:02;33.80;;;16.92;;
41233;SDS011;26968;42.686;23.352;2023-03-04T04:29:28;32.65;;;16.65;;
41233;SDS011;26968;42.686;23.352;2023-03-04T04:31:54;34.30;;;16.33;;
41233;SDS011;26968;42.686;23.352;2023-03-04T04:34:19;34.97;;;17.83;;
41233;SDS011;26968;42.686;23.352;2023-03-04T04:36:45;33.25;;;15.98;;
41233;SDS011;26968;42.686;23.352;2023-03-04T04:39:10;32.72;;;17.42;;
41233;SDS011;26968;42.686;23.352;2023-03-04T04:41:37;33.25;;;16.30;;
41233;SDS011;26968;42.686;23.352;2023-03-04T04:44:04;32.65;;;17.60;;
41233;SDS011;26968;42.686;23.352;2023-03-04T04:46:30;31.02;;;16.10;;
41233;SDS011;26968;42.686;23.352;2023-03-04T04:48:56;32.25;;;16.85;;
41233;SDS011;26968;42.686;23.352;2023-03-04T04:51:21;36.65;;;18.40;;
41233;SDS011;26968;42.686;23.352;2023-03-04T04:53:47;31.42;;;17.25;;
41233;SDS011;26968;42.686;23.352;2023-03-04T04:56:17;31.40;;;17.75;;
41233;SDS011;26968;42.686;23.352;2023-03-04T05:01:10;33.95;;;17.60;;
41233;SDS011;26968;42.686;23.352;2023-03-04T05:03:36;34.00;;;18.42;;
41233;SDS011;26968;42.686;23.352;2023-03-04T05:06:03;35.92;;;18.55;;
41233;SDS011;26968;42.686;23.352;2023-03-04T05:08:31;35.05;;;18.90;;
41233;SDS011;26968;42.686;23.352;2023-03-04T05:10:57;37.33;;;20.02;;
41233;SDS011;26968;42.686;23.352;2023-03-04T05:13:22;33.80;;;18.13;;
41233;SDS011;26968;42.686;23.352;2023-03-04T05:15:50;33.35;;;18.13;;
41233;SDS011;26968;42.686;23.352;2023-03-04T05:18:17;36.83;;;19.08;;
41233;SDS011;26968;42.686;23.352;2023-03-04T05:20:44;36.08;;;18.88;;
41233;SDS011;26968;42.686;23.352;2023-03-04T05:23:10;38.08;;;19.38;;
41233;SDS011;26968;42.686;23.352;2023-03-04T05:25:35;40.97;;;20.58;;
41233;SDS011;26968;42.686;23.352;2023-03-04T05:28:00;54.85;;;22.42;;
41233;SDS011;26968;42.686;23.352;2023-03-04T05:30:26;38.42;;;19.08;;
41233;SDS011;26968;42.686;23.352;2023-03-04T05:32:52;39.58;;;19.67;;
41233;SDS011;26968;42.686;23.352;2023-03-04T05:35:17;37.72;;;19.52;;
41233;SDS011;26968;42.686;23.352;2023-03-04T05:37:43;37.35;;;18.85;;
41233;SDS011;26968;42.686;23.352;2023-03-04T05:40:08;36.35;;;20.45;;
41233;SDS011;26968;42.686;23.352;2023-03-04T05:42:34;34.53;;;21.30;;
41233;SDS011;26968;42.686;23.352;2023-03-04T05:44:59;38.38;;;20.73;;
41233;SDS011;26968;42.686;23.352;2023-03-04T05:47:25;41.78;;;20.27;;
41233;SDS011;26968;42.686;23.352;2023-03-04T05:49:50;37.97;;;20.90;;
41233;SDS011;26968;42.686;23.352;2023-03-04T05:52:16;35.38;;;19.20;;
41233;SDS011;26968;42.686;23.352;2023-03-04T05:54:41;39.35;;;20.50;;
41233;SDS011;26968;42.686;23.352;2023-03-04T05:57:07;40.78;;;21.70;;
41233;SDS011;26968;42.686;23.352;2023-03-04T05:59:32;43.28;;;21.90;;
41233;SDS011;26968;42.686;23.352;2023-03-04T06:01:57;38.28;;;22.15;;
41233;SDS011;26968;42.686;23.352;2023-03-04T06:04:24;45.25;;;22.52;;
41233;SDS011;26968;42.686;23.352;2023-03-04T06:06:50;39.95;;;22.30;;
41233;SDS011;26968;42.686;23.352;2023-03-04T06:09:15;41.83;;;21.27;;
41233;SDS011;26968;42.686;23.352;2023-03-04T06:11:41;43.22;;;20.88;;
41233;SDS011;26968;42.686;23.352;2023-03-04T06:14:06;43.72;;;22.40;;
41233;SDS011;26968;42.686;23.352;2023-03-04T06:16:31;43.95;;;22.63;;
41233;SDS011;26968;42.686;23.352;2023-03-04T06:18:57;47.78;;;24.25;;
41233;SDS011;26968;42.686;23.352;2023-03-04T06:21:22;46.35;;;22.88;;
41233;SDS011;26968;42.686;23.352;2023-03-04T06:23:48;44.35;;;24.98;;
41233;SDS011;26968;42.686;23.352;2023-03-04T06:26:13;45.53;;;27.00;;
41233;SDS011;26968;42.686;23.352;2023-03-04T06:28:42;49.53;;;28.90;;
41233;SDS011;26968;42.686;23.352;2023-03-04T06:31:09;50.03;;;29.17;;
41233;SDS011;26968;42.686;23.352;2023-03-04T06:33:35;52.25;;;29.60;;
41233;SDS011;26968;42.686;23.352;2023-03-04T06:36:01;54.95;;;28.55;;
41233;SDS011;26968;42.686;23.352;2023-03-04T06:38:26;54.50;;;29.20;;
41233;SDS011;26968;42.686;23.352;2023-03-04T06:40:52;45.50;;;25.92;;
41233;SDS011;26968;42.686;23.352;2023-03-04T06:43:18;50.35;;;24.63;;
41233;SDS011;26968;42.686;23.352;2023-03-04T06:45:43;49.17;;;25.65;;
41233;SDS011;26968;42.686;23.352;2023-03-04T06:48:09;44.10;;;24.02;;
41233;SDS011;26968;42.686;23.352;2023-03-04T06:50:35;42.15;;;23.17;;
41233;SDS011;26968;42.686;23.352;2023-03-04T06:53:01;48.28;;;26.23;;
41233;SDS011;26968;42.686;23.352;2023-03-04T06:55:26;48.03;;;23.75;;
41233;SDS011;26968;42.686;23.352;2023-03-04T06:57:52;44.53;;;23.25;;
41233;SDS011;26968;42.686;23.352;2023-03-04T07:00:17;40.13;;;21.05;;
41233;SDS011;26968;42.686;23.352;2023-03-04T07:02:43;38.28;;;20.48;;
41233;SDS011;26968;42.686;23.352;2023-03-04T07:05:09;33.63;;;18.60;;
41233;SDS011;26968;42.686;23.352;2023-03-04T07:07:35;40.80;;;22.13;;
41233;SDS011;26968;42.686;23.352;2023-03-04T07:10:01;44.03;;;22.00;;
41233;SDS011;26968;42.686;23.352;2023-03-04T07:12:26;52.47;;;24.23;;
41233;SDS011;26968;42.686;23.352;2023-03-04T07:14:52;38.20;;;18.38;;
41233;SDS011;26968;42.686;23.352;2023-03-04T07:17:17;33.25;;;16.58;;
41233;SDS011;26968;42.686;23.352;2023-03-04T07:19:42;48.67;;;21.20;;
41233;SDS011;26968;42.686;23.352;2023-03-04T07:22:08;50.88;;;23.60;;
41233;SDS011;26968;42.686;23.352;2023-03-04T07:24:34;54.45;;;25.08;;
41233;SDS011;26968;42.686;23.352;2023-03-04T07:27:00;42.10;;;21.33;;
41233;SDS011;26968;42.686;23.352;2023-03-04T07:29:25;42.47;;;19.58;;
41233;SDS011;26968;42.686;23.352;2023-03-04T07:31:51;44.33;;;20.35;;
41233;SDS011;26968;42.686;23.352;2023-03-04T07:34:16;43.15;;;20.85;;
41233;SDS011;26968;42.686;23.352;2023-03-04T07:36:42;45.83;;;21.05;;
41233;SDS011;26968;42.686;23.352;2023-03-04T07:39:10;43.10;;;19.73;;
41233;SDS011;26968;42.686;23.352;2023-03-04T07:41:37;45.65;;;19.98;;
41233;SDS011;26968;42.686;23.352;2023-03-04T07:44:04;47.63;;;20.20;;
41233;SDS011;26968;42.686;23.352;2023-03-04T07:46:31;34.10;;;17.80;;
41233;SDS011;26968;42.686;23.352;2023-03-04T07:48:57;36.08;;;19.75;;
41233;SDS011;26968;42.686;23.352;2023-03-04T07:51:23;47.58;;;20.27;;
41233;SDS011;26968;42.686;23.352;2023-03-04T07:53:51;42.58;;;20.33;;
41233;SDS011;26968;42.686;23.352;2023-03-04T07:56:18;55.15;;;27.85;;
41233;SDS011;26968;42.686;23.352;2023-03-04T07:58:46;47.35;;;27.20;;
41233;SDS011;26968;42.686;23.352;2023-03-04T08:01:16;48.25;;;29.13;;
41233;SDS011;26968;42.686;23.352;2023-03-04T08:03:44;53.65;;;29.25;;
41233;SDS011;26968;42.686;23.352;2023-03-04T08:06:10;52.55;;;28.73;;
41233;SDS011;26968;42.686;23.352;2023-03-04T08:08:37;56.20;;;30.17;;
41233;SDS011;26968;42.686;23.352;2023-03-04T08:11:04;49.30;;;28.88;;
41233;SDS011;26968;42.686;23.352;2023-03-04T08:13:31;54.00;;;28.83;;
41233;SDS011;26968;42.686;23.352;2023-03-04T08:15:57;57.80;;;29.52;;
41233;SDS011;26968;42.686;23.352;2023-03-04T08:18:23;53.08;;;28.30;;
41233;SDS011;26968;42.686;23.352;2023-03-04T08:20:48;49.08;;;29.23;;
41233;SDS011;26968;42.686;23.352;2023-03-04T08:23:14;47.50;;;27.45;;
41233;SDS011;26968;42.686;23.352;2023-03-04T08:25:40;49.40;;;27.95;;
41233;SDS011;26968;42.686;23.352;2023-03-04T08:28:07;46.03;;;25.73;;
41233;SDS011;26968;42.686;23.352;2023-03-04T08:30:33;48.70;;;23.60;;
41233;SDS011;26968;42.686;23.352;2023-03-04T08:33:00;39.90;;;23.25;;
41233;SDS011;26968;42.686;23.352;2023-03-04T08:35:26;44.83;;;24.65;;
41233;SDS011;26968;42.686;23.352;2023-03-04T08:37:51;44.90;;;23.10;;
41233;SDS011;26968;42.686;23.352;2023-03-04T08:40:17;43.28;;;24.00;;
41233;SDS011;26968;42.686;23.352;2023-03-04T08:42:42;47.70;;;26.92;;
41233;SDS011;26968;42.686;23.352;2023-03-04T08:45:08;49.03;;;25.23;;
41233;SDS011;26968;42.686;23.352;2023-03-04T08:47:34;46.25;;;26.02;;
41233;SDS011;26968;42.686;23.352;2023-03-04T08:49:59;53.33;;;24.25;;
41233;SDS011;26968;42.686;23.352;2023-03-04T08:52:25;58.88;;;26.00;;
41233;SDS011;26968;42.686;23.352;2023-03-04T08:54:52;52.40;;;25.27;;
41233;SDS011;26968;42.686;23.352;2023-03-04T08:57:17;52.90;;;25.15;;
41233;SDS011;26968;42.686;23.352;2023-03-04T08:59:43;48.00;;;26.83;;
41233;SDS011;26968;42.686;23.352;2023-03-04T09:02:08;50.95;;;26.45;;
41233;SDS011;26968;42.686;23.352;2023-03-04T09:04:34;45.80;;;26.42;;
41233;SDS011;26968;42.686;23.352;2023-03-04T09:06:59;45.33;;;24.17;;
41233;SDS011;26968;42.686;23.352;2023-03-04T09:09:25;50.80;;;24.02;;
41233;SDS011;26968;42.686;23.352;2023-03-04T09:11:50;47.65;;;23.13;;
41233;SDS011;26968;42.686;23.352;2023-03-04T09:14:16;49.53;;;21.95;;
41233;SDS011;26968;42.686;23.352;2023-03-04T09:16:41;49.72;;;23.38;;
41233;SDS011;26968;42.686;23.352;2023-03-04T09:19:06;41.10;;;21.35;;
41233;SDS011;26968;42.686;23.352;2023-03-04T09:21:32;49.33;;;24.05;;
41233;SDS011;26968;42.686;23.352;2023-03-04T09:23:57;46.90;;;23.45;;
41233;SDS011;26968;42.686;23.352;2023-03-04T09:26:24;56.85;;;23.30;;
41233;SDS011;26968;42.686;23.352;2023-03-04T09:28:52;42.78;;;21.85;;
41233;SDS011;26968;42.686;23.352;2023-03-04T09:31:19;44.97;;;21.27;;
41233;SDS011;26968;42.686;23.352;2023-03-04T09:33:45;40.42;;;22.05;;
41233;SDS011;26968;42.686;23.352;2023-03-04T09:36:12;49.60;;;24.10;;
41233;SDS011;26968;42.686;23.352;2023-03-04T09:38:39;40.65;;;22.23;;
41233;SDS011;26968;42.686;23.352;2023-03-04T09:41:09;46.28;;;23.55;;
41233;SDS011;26968;42.686;23.352;2023-03-04T09:43:39;50.42;;;22.92;;
41233;SDS011;26968;42.686;23.352;2023-03-04T09:46:07;53.65;;;23.55;;
41233;SDS011;26968;42.686;23.352;2023-03-04T09:48:48;39.58;;;20.33;;
41233;SDS011;26968;42.686;23.352;2023-03-04T09:51:22;46.70;;;22.15;;
41233;SDS011;26968;42.686;23.352;2023-03-04T09:54:08;45.22;;;22.05;;
41233;SDS011;26968;42.686;23.352;2023-03-04T09:56:39;46.20;;;22.48;;
41233;SDS011;26968;42.686;23.352;2023-03-04T10:02:12;49.97;;;22.65;;
41233;SDS011;26968;42.686;23.352;2023-03-04T10:05:00;34.92;;;19.58;;
41233;SDS011;26968;42.686;23.352;2023-03-04T10:07:32;34.35;;;18.70;;
41233;SDS011;26968;42.686;23.352;2023-03-04T10:10:10;41.20;;;19.88;;
41233;SDS011;26968;42.686;23.352;2023-03-04T10:12:39;42.13;;;20.65;;
41233;SDS011;26968;42.686;23.352;2023-03-04T10:17:48;46.67;;;19.70;;
41233;SDS011;26968;42.686;23.352;2023-03-04T10:20:21;42.40;;;20.03;;
41233;SDS011;26968;42.686;23.352;2023-03-04T10:22:57;41.53;;;21.17;;
41233;SDS011;26968;42.686;23.352;2023-03-04T10:25:30;40.22;;;19.00;;
41233;SDS011;26968;42.686;23.352;2023-03-04T10:27:58;40.03;;;19.23;;
41233;SDS011;26968;42.686;23.352;2023-03-04T10:32:55;29.85;;;18.45;;
41233;SDS011;26968;42.686;23.352;2023-03-04T10:35:22;40.95;;;18.17;;
41233;SDS011;26968;42.686;23.352;2023-03-04T10:37:55;35.45;;;17.13;;
41233;SDS011;26968;42.686;23.352;2023-03-04T10:40:27;41.97;;;18.38;;
41233;SDS011;26968;42.686;23.352;2023-03-04T10:42:52;46.17;;;18.77;;
41233;SDS011;26968;42.686;23.352;2023-03-04T10:45:22;44.88;;;20.92;;
41233;SDS011;26968;42.686;23.352;2023-03-04T10:47:55;38.65;;;18.00;;
41233;SDS011;26968;42.686;23.352;2023-03-04T10:50:24;34.70;;;17.23;;
41233;SDS011;26968;42.686;23.352;2023-03-04T10:52:51;34.45;;;16.90;;
41233;SDS011;26968;42.686;23.352;2023-03-04T10:55:23;32.70;;;16.42;;
41233;SDS011;26968;42.686;23.352;2023-03-04T10:57:52;35.08;;;17.63;;
41233;SDS011;26968;42.686;23.352;2023-03-04T11:00:25;32.75;;;17.75;;
41233;SDS011;26968;42.686;23.352;2023-03-04T11:05:48;35.33;;;17.67;;
41233;SDS011;26968;42.686;23.352;2023-03-04T11:08:17;38.38;;;17.83;;
41233;SDS011;26968;42.686;23.352;2023-03-04T11:10:44;35.67;;;18.55;;
41233;SDS011;26968;42.686;23.352;2023-03-04T11:16:22;39.67;;;18.88;;
41233;SDS011;26968;42.686;23.352;2023-03-04T11:20:56;32.08;;;18.00;;
41233;SDS011;26968;42.686;23.352;2023-03-04T11:25:57;32.85;;;17.48;;
41233;SDS011;26968;42.686;23.352;2023-03-04T11:29:27;34.88;;;18.42;;
41233;SDS011;26968;42.686;23.352;2023-03-04T11:32:03;40.08;;;20.55;;
41233;SDS011;26968;42.686;23.352;2023-03-04T11:34:41;43.40;;;19.15;;
41233;SDS011;26968;42.686;23.352;2023-03-04T11:37:21;38.13;;;18.02;;
41233;SDS011;26968;42.686;23.352;2023-03-04T11:39:55;37.30;;;18.40;;
41233;SDS011;26968;42.686;23.352;2023-03-04T11:45:16;43.30;;;18.58;;
41233;SDS011;26968;42.686;23.352;2023-03-04T11:50:27;45.63;;;18.65;;
41233;SDS011;26968;42.686;23.352;2023-03-04T11:53:13;40.03;;;20.17;;
41233;SDS011;26968;42.686;23.352;2023-03-04T12:01:54;40.38;;;18.20;;
41233;SDS011;26968;42.686;23.352;2023-03-04T12:04:39;44.88;;;19.33;;
41233;SDS011;26968;42.686;23.352;2023-03-04T12:10:04;36.88;;;18.38;;
41233;SDS011;26968;42.686;23.352;2023-03-04T12:12:50;43.70;;;19.45;;
41233;SDS011;26968;42.686;23.352;2023-03-04T12:26:48;40.60;;;19.92;;
41233;SDS011;26968;42.686;23.352;2023-03-04T12:38:01;35.80;;;18.75;;
41233;SDS011;26968;42.686;23.352;2023-03-04T12:46:26;40.75;;;19.60;;
41233;SDS011;26968;42.686;23.352;2023-03-04T12:49:10;42.88;;;19.50;;
41233;SDS011;26968;42.686;23.352;2023-03-04T13:00:07;44.75;;;22.23;;
41233;SDS011;26968;42.686;23.352;2023-03-04T13:08:48;50.03;;;22.90;;
41233;SDS011;26968;42.686;23.352;2023-03-04T13:14:01;46.33;;;22.85;;
41233;SDS011;26968;42.686;23.352;2023-03-04T13:16:31;43.95;;;21.42;;
41233;SDS011;26968;42.686;23.352;2023-03-04T13:19:00;43.50;;;22.02;;
41233;SDS011;26968;42.686;23.352;2023-03-04T13:21:29;48.38;;;21.48;;
41233;SDS011;26968;42.686;23.352;2023-03-04T13:23:56;44.63;;;22.95;;
41233;SDS011;26968;42.686;23.352;2023-03-04T13:26:32;45.20;;;20.88;;
41233;SDS011;26968;42.686;23.352;2023-03-04T13:31:58;43.70;;;22.98;;
41233;SDS011;26968;42.686;23.352;2023-03-04T13:34:50;52.50;;;23.65;;
41233;SDS011;26968;42.686;23.352;2023-03-04T13:37:34;44.83;;;23.75;;
41233;SDS011;26968;42.686;23.352;2023-03-04T13:42:44;47.13;;;25.27;;
41233;SDS011;26968;42.686;23.352;2023-03-04T13:47:56;49.67;;;24.83;;
41233;SDS011;26968;42.686;23.352;2023-03-04T13:50:24;47.05;;;24.98;;
41233;SDS011;26968;42.686;23.352;2023-03-04T13:52:54;47.10;;;24.38;;
41233;SDS011;26968;42.686;23.352;2023-03-04T13:59:10;49.40;;;24.95;;
41233;SDS011;26968;42.686;23.352;2023-03-04T14:04:18;45.63;;;25.30;;
41233;SDS011;26968;42.686;23.352;2023-03-04T14:06:50;50.92;;;24.40;;
41233;SDS011;26968;42.686;23.352;2023-03-04T14:09:20;43.00;;;23.85;;
41233;SDS011;26968;42.686;23.352;2023-03-04T14:11:51;57.10;;;26.63;;
41233;SDS011;26968;42.686;23.352;2023-03-04T14:14:25;48.72;;;25.50;;
41233;SDS011;26968;42.686;23.352;2023-03-04T14:17:00;48.45;;;26.15;;
41233;SDS011;26968;42.686;23.352;2023-03-04T14:27:37;44.53;;;23.40;;
41233;SDS011;26968;42.686;23.352;2023-03-04T14:30:04;44.58;;;23.90;;
41233;SDS011;26968;42.686;23.352;2023-03-04T14:32:32;39.00;;;21.73;;
41233;SDS011;26968;42.686;23.352;2023-03-04T14:35:00;46.60;;;23.63;;
41233;SDS011;26968;42.686;23.352;2023-03-04T14:37:36;49.28;;;24.10;;
41233;SDS011;26968;42.686;23.352;2023-03-04T14:40:10;44.60;;;21.95;;
41233;SDS011;26968;42.686;23.352;2023-03-04T14:42:45;45.50;;;24.42;;
41233;SDS011;26968;42.686;23.352;2023-03-04T14:45:13;52.60;;;23.33;;
41233;SDS011;26968;42.686;23.352;2023-03-04T14:47:41;43.80;;;23.27;;
41233;SDS011;26968;42.686;23.352;2023-03-04T14:50:18;49.67;;;22.35;;
41233;SDS011;26968;42.686;23.352;2023-03-04T14:52:45;43.63;;;22.88;;
41233;SDS011;26968;42.686;23.352;2023-03-04T14:55:28;39.80;;;21.70;;
41233;SDS011;26968;42.686;23.352;2023-03-04T14:58:04;34.50;;;20.52;;
41233;SDS011;26968;42.686;23.352;2023-03-04T15:01:13;39.08;;;22.75;;
41233;SDS011;26968;42.686;23.352;2023-03-04T15:03:52;48.58;;;23.50;;
41233;SDS011;26968;42.686;23.352;2023-03-04T15:06:23;49.60;;;23.02;;
41233;SDS011;26968;42.686;23.352;2023-03-04T15:09:32;39.85;;;21.77;;
41233;SDS011;26968;42.686;23.352;2023-03-04T15:11:48;32.83;;;19.98;;
41233;SDS011;26968;42.686;23.352;2023-03-04T15:15:01;36.10;;;20.23;;
41233;SDS011;26968;42.686;23.352;2023-03-04T15:19:56;45.08;;;21.67;;
41233;SDS011;26968;42.686;23.352;2023-03-04T15:22:28;41.20;;;22.98;;
41233;SDS011;26968;42.686;23.352;2023-03-04T15:24:54;37.67;;;20.50;;
41233;SDS011;26968;42.686;23.352;2023-03-04T15:27:20;41.05;;;21.02;;
41233;SDS011;26968;42.686;23.352;2023-03-04T15:29:48;45.08;;;23.15;;
41233;SDS011;26968;42.686;23.352;2023-03-04T15:32:14;41.25;;;22.95;;
41233;SDS011;26968;42.686;23.352;2023-03-04T15:34:39;45.00;;;22.65;;
41233;SDS011;26968;42.686;23.352;2023-03-04T15:37:05;35.35;;;20.85;;
41233;SDS011;26968;42.686;23.352;2023-03-04T15:39:30;43.33;;;20.55;;
41233;SDS011;26968;42.686;23.352;2023-03-04T15:41:56;46.28;;;21.83;;
41233;SDS011;26968;42.686;23.352;2023-03-04T15:44:22;43.80;;;21.92;;
41233;SDS011;26968;42.686;23.352;2023-03-04T15:46:47;48.58;;;23.48;;
41233;SDS011;26968;42.686;23.352;2023-03-04T15:49:13;42.92;;;23.23;;
41233;SDS011;26968;42.686;23.352;2023-03-04T15:51:38;43.22;;;21.52;;
41233;SDS011;26968;42.686;23.352;2023-03-04T15:54:04;45.08;;;23.02;;
41233;SDS011;26968;42.686;23.352;2023-03-04T15:56:34;40.63;;;22.60;;
41233;SDS011;26968;42.686;23.352;2023-03-04T15:59:01;50.20;;;24.60;;
41233;SDS011;26968;42.686;23.352;2023-03-04T16:01:30;44.63;;;24.77;;
41233;SDS011;26968;42.686;23.352;2023-03-04T16:03:55;50.08;;;25.95;;